WetterOnline ( https://www.wetteronline.de )

Wetter aktuell Welt

Aktuelles Wetter: St. Peter-Ording (11m)

6-stündlich | Neueste Meldungen
Ortszeit Temperatur Wetter
Mo, 22.07. 8:00 17.2° C bedeckt
Mo, 22.07. 2:00 18.8° C bewölkt
So, 21.07. 20:00 21.0° C wolkig
So, 21.07. 14:00 27.5° C leicht bewölkt
So, 21.07. 8:00 20.3° C leicht bewölkt
So, 21.07. 2:00 17.3° C leicht bewölkt
Sa, 20.07. 20:00 24.6° C wolkenlos
Sa, 20.07. 14:00 27.7° C wolkenlos
Ortszeit Temperatur Wetter
Mo, 22.07. 10:30 17.1° C bedeckt
Mo, 22.07. 10:20 17.1° C bedeckt
Mo, 22.07. 10:10 17.2° C bedeckt
Mo, 22.07. 10:00 16.9° C bedeckt
Mo, 22.07. 9:50 16.9° C bedeckt
Mo, 22.07. 9:40 16.8° C bedeckt
Mo, 22.07. 9:30 16.9° C bedeckt
Mo, 22.07. 9:00 17.0° C bedeckt
Mo, 22.07. 8:30 16.8° C bedeckt
Mo, 22.07. 8:00 17.2° C bedeckt
Mo, 22.07. 7:30 17.0° C bedeckt
Ortszeit Relative Feuchte Sichtweite
Mo, 22.07. 8:00 92% 30 km
Mo, 22.07. 2:00 95% 20 km
So, 21.07. 20:00 86% 35 km
So, 21.07. 14:00 59% 27 km
So, 21.07. 8:00 76% 40 km
So, 21.07. 2:00 84% 40 km
Sa, 20.07. 20:00 64% 45 km
Sa, 20.07. 14:00 48% 55 km
Ortszeit Relative Feuchte Sichtweite
Mo, 22.07. 10:30 78% 40 km
Mo, 22.07. 10:20 78% -
Mo, 22.07. 10:10 78% -
Mo, 22.07. 10:00 80% 40 km
Mo, 22.07. 9:50 80% -
Mo, 22.07. 9:40 82% -
Mo, 22.07. 9:30 84% 35 km
Mo, 22.07. 9:00 85% 40 km
Mo, 22.07. 8:30 89% 15 km
Mo, 22.07. 8:00 92% 30 km
Mo, 22.07. 7:30 94% 21 km
Ortszeit Niederschlagsmenge Niederschlagsart
Mo, 22.07. 8:00 14 l/m2 in 12 Std. Regen
Mo, 22.07. 2:00 0.0 l/m2 in 6 Std. -
So, 21.07. 20:00 0.0 l/m2 in 12 Std. -
So, 21.07. 14:00 0.0 l/m2 in 6 Std. -
So, 21.07. 8:00 0.0 l/m2 in 12 Std. -
So, 21.07. 2:00 0.0 l/m2 in 6 Std. -
Sa, 20.07. 20:00 0.0 l/m2 in 12 Std. -
Sa, 20.07. 14:00 0.0 l/m2 in 6 Std. -
Ortszeit Niederschlagsmenge Niederschlagsart
Mo, 22.07. 10:30 0.0 l/m2 in 30 Min -
Mo, 22.07. 10:20 keine Meldung -
Mo, 22.07. 10:10 keine Meldung -
Mo, 22.07. 10:00 0.0 l/m2 in 1 Std. -
Mo, 22.07. 9:50 keine Meldung -
Mo, 22.07. 9:40 keine Meldung -
Mo, 22.07. 9:30 0.0 l/m2 in 30 Min -
Mo, 22.07. 9:00 <0.05 l/m2 in 1 Std. Sprühregen
Mo, 22.07. 8:30 <0.05 l/m2 in 30 Min Schnee
Mo, 22.07. 8:00 <0.05 l/m2 in 1 Std. Regen
Mo, 22.07. 7:30 <0.05 l/m2 in 30 Min Schneeregen
Ortszeit Stärke Spitze Richtung
km/h Bft. km/h Grad Sektor
Mo, 22.07. 8:00 31 5 44 300° NW
Mo, 22.07. 2:00 29 5 36 290° W
So, 21.07. 20:00 14 3 40 320° NW
So, 21.07. 14:00 11 2 29 220° SW
So, 21.07. 8:00 18 3 25 120° SO
So, 21.07. 2:00 18 3 29 100° O
Sa, 20.07. 20:00 19 3 33 80° O
Sa, 20.07. 14:00 17 3 28 130° SO
Ortszeit Stärke Spitze Richtung
km/h Bft. km/h Grad Sektor
Mo, 22.07. 10:30 30 5 43 300° NW
Mo, 22.07. 10:20 30 5 - 300° NW
Mo, 22.07. 10:10 30 5 - 300° NW
Mo, 22.07. 10:00 33 5 48 290° W
Mo, 22.07. 9:50 33 5 - 290° W
Mo, 22.07. 9:40 31 5 - 300° NW
Mo, 22.07. 9:30 32 5 47 300° NW
Mo, 22.07. 9:00 32 5 47 300° NW
Mo, 22.07. 8:30 30 5 43 300° NW
Mo, 22.07. 8:00 31 5 43 300° NW
Mo, 22.07. 7:30 29 5 43 300° NW
Ortszeit Untergrenze Bedeckung Gattung
total tief tief mittel hoch
Mo, 22.07. 8:00 330 m 8/8 8/8 - - -
Mo, 22.07. 2:00 150 m 8/8 6/8 - - -
So, 21.07. 20:00 2100 m 6/8 3/8 - - -
So, 21.07. 14:00 7200 m 3/8 0/8 - - -
So, 21.07. 8:00 7800 m 6/8 0/8 - - -
So, 21.07. 2:00 10500 m 4/8 0/8 - - -
Sa, 20.07. 20:00 - 0/8 0/8 - - -
Sa, 20.07. 14:00 - 0/8 0/8 - - -
Ortszeit Bedeckungsgrad in Achtel und Wolkenuntergrenze
Mo, 22.07. 10:30 3(720m) 8(870m)
Mo, 22.07. 10:20 3(720m) 8(870m)
Mo, 22.07. 10:10 8
Mo, 22.07. 10:00 6(570m) 8(720m)
Mo, 22.07. 9:50 6(570m) 8(720m)
Mo, 22.07. 9:40 8
Mo, 22.07. 9:30 4(480m) 8(600m)
Mo, 22.07. 9:00 1(270m) 8(540m)
Mo, 22.07. 8:30 5(330m) 7(540m) 8(690m)
Mo, 22.07. 8:00 4(330m) 7(600m) 8(1020m)
Mo, 22.07. 7:30 2(240m) 6(390m) 8(540m)
Ortszeit Luftdruck NN (hPa) Tendenz (hPa in 3 Std.)
Mo, 22.07. 8:00 1011 + 1,7
Mo, 22.07. 2:00 1009 + 0,4
So, 21.07. 20:00 1008 + 0,6
So, 21.07. 14:00 1006 - 0,2
So, 21.07. 8:00 1007 - 0,2
So, 21.07. 2:00 1008 - 0,9
Sa, 20.07. 20:00 1009 - 1,3
Sa, 20.07. 14:00 1012 - 1,4
Ortszeit Luftdruck NN (hPa) Tendenz (hPa in 3 Std.)
Mo, 22.07. 10:30 1013 + 2,0
Mo, 22.07. 10:20 1013 keine Meldung
Mo, 22.07. 10:10 1013 keine Meldung
Mo, 22.07. 10:00 1013 + 2,0
Mo, 22.07. 9:50 1013 keine Meldung
Mo, 22.07. 9:40 1013 keine Meldung
Mo, 22.07. 9:30 1012 + 2,1
Mo, 22.07. 9:00 1012 + 2,0
Mo, 22.07. 8:30 1012 + 2,1
Mo, 22.07. 8:00 1011 + 1,7
Mo, 22.07. 7:30 1011 + 1,4
Ortszeit Schneehöhe (cm)
Mo, 22.07. 8:00 0
Mo, 22.07. 2:00 0
So, 21.07. 20:00 0
So, 21.07. 14:00 0
So, 21.07. 8:00 0
So, 21.07. 2:00 0
Sa, 20.07. 20:00 0
Sa, 20.07. 14:00 0
Ortszeit Schneehöhe (cm)
Mo, 22.07. 10:30 0
Mo, 22.07. 10:20 0
Mo, 22.07. 10:10 -
Mo, 22.07. 10:00 0
Mo, 22.07. 9:50 0
Mo, 22.07. 9:40 -
Mo, 22.07. 9:30 0
Mo, 22.07. 9:00 0
Mo, 22.07. 8:30 0
Mo, 22.07. 8:00 0
Mo, 22.07. 7:30 0
Link zu dieser Seite / Seite empfehlen

Das Wetter in ...